Time;durP1;ratioP1;P1;durP2;ratioP2;P2;SDS_P1;SDS_P2;PMS_P1;PMS_P2;Temp;Humidity;BMP_temperature;BMP_pressure;BME280_temperature;BME280_humidity;BME280_pressure;Samples;Min_cycle;Max_cycle;Signal;HPM_P1;HPM_P2
2022/05/02 00:02:43;;;;;;;9.05;4.03;;;;;;;14.01;57.22;99846.50;4433722;32;34458;-70
2022/05/02 00:05:30;;;;;;;8.48;4.28;;;;;;;14.16;56.79;99845.94;4421020;32;34427;-70
2022/05/02 00:08:17;;;;;;;6.57;4.25;;;;;;;14.40;55.41;99846.19;4430392;32;35071;-70
2022/05/02 00:11:03;;;;;;;6.07;3.30;;;;;;;14.15;55.17;99844.34;4431935;32;33684;-69
2022/05/02 00:13:50;;;;;;;7.32;3.70;;;;;;;12.47;60.67;99837.56;4433149;32;34238;-70
2022/05/02 00:16:39;;;;;;;9.63;4.10;;;;;;;12.46;62.48;99835.91;4432020;32;34099;-70
2022/05/02 00:19:25;;;;;;;7.20;3.72;;;;;;;13.37;59.64;99841.72;4431982;32;35385;-70
2022/05/02 00:22:11;;;;;;;6.90;3.90;;;;;;;13.61;58.52;99833.78;4432947;32;34250;-70
2022/05/02 00:24:58;;;;;;;8.25;4.15;;;;;;;13.51;58.85;99836.84;4430401;32;34690;-70
2022/05/02 00:27:51;;;;;;;5.70;3.35;;;;;;;12.36;63.21;99841.72;4431687;32;36038;-70
2022/05/02 00:30:39;;;;;;;5.60;3.33;;;;;;;13.12;61.38;99840.56;4430771;32;35474;-70
2022/05/02 00:33:26;;;;;;;7.32;3.87;;;;;;;12.81;61.61;99841.53;4431719;32;34290;-70
2022/05/02 00:36:13;;;;;;;6.78;3.60;;;;;;;13.10;60.64;99842.84;4431363;32;34182;-70
2022/05/02 00:39:01;;;;;;;6.60;3.80;;;;;;;12.65;62.59;99832.91;4432212;32;34009;-70
2022/05/02 00:41:48;;;;;;;7.65;4.28;;;;;;;13.19;60.99;99833.44;4430229;32;34649;-70
2022/05/02 00:44:35;;;;;;;6.22;3.92;;;;;;;13.26;60.83;99835.75;4431961;32;33921;-70
2022/05/02 00:47:24;;;;;;;8.75;4.93;;;;;;;12.73;63.49;99850.56;4432287;32;35492;-70
2022/05/02 00:50:10;;;;;;;5.32;3.72;;;;;;;12.80;63.06;99848.13;4431672;32;34592;-70
2022/05/02 00:52:58;;;;;;;9.45;5.00;;;;;;;13.28;62.03;99845.28;4431558;32;35521;-70
2022/05/02 00:55:45;;;;;;;7.40;4.18;;;;;;;13.11;62.34;99839.75;4432211;32;35088;-70
2022/05/02 00:58:36;;;;;;;6.97;4.43;;;;;;;13.58;60.92;99852.91;4429303;32;34080;-70
2022/05/02 01:01:25;;;;;;;6.00;4.10;;;;;;;13.24;62.01;99854.50;4419733;32;33863;-70
2022/05/02 01:04:12;;;;;;;7.47;4.53;;;;;;;13.24;62.44;99843.50;4430750;32;34266;-70
2022/05/02 01:07:19;;;;;;;6.15;4.07;;;;;;;13.35;62.18;99849.50;4431103;32;35071;-70
2022/05/02 01:10:05;;;;;;;8.27;4.65;;;;;;;13.66;60.86;99849.31;4424524;32;33731;-69
2022/05/02 01:12:52;;;;;;;7.60;4.47;;;;;;;13.33;62.00;99847.09;4433417;32;35317;-70
2022/05/02 01:15:38;;;;;;;6.78;3.80;;;;;;;12.83;63.66;99847.47;4434436;32;34886;-69
2022/05/02 01:18:25;;;;;;;8.52;4.28;;;;;;;13.21;62.37;99844.94;4434028;32;33664;-70
2022/05/02 01:21:16;;;;;;;9.32;4.05;;;;;;;13.36;61.82;99845.62;4432956;32;34741;-70
2022/05/02 01:24:10;;;;;;;8.02;4.30;;;;;;;13.13;62.76;99853.19;4421030;32;35896;-70
2022/05/02 01:26:56;;;;;;;7.20;4.00;;;;;;;13.23;62.75;99841.84;4417153;32;34714;-70
2022/05/02 01:29:45;;;;;;;7.85;3.67;;;;;;;13.61;61.47;99838.47;4416788;32;34123;-70
2022/05/02 01:32:32;;;;;;;7.87;4.07;;;;;;;13.55;60.19;99843.34;4417387;32;34672;-69
2022/05/02 01:35:18;;;;;;;7.20;4.43;;;;;;;13.11;62.25;99844.44;4417642;32;34990;-70
2022/05/02 01:38:05;;;;;;;6.47;4.47;;;;;;;13.09;62.49;99850.28;4406715;32;34690;-70
2022/05/02 01:40:51;;;;;;;10.00;4.85;;;;;;;13.29;61.98;99846.13;4418167;32;34162;-69
2022/05/02 01:43:39;;;;;;;6.12;3.92;;;;;;;13.41;60.42;99851.78;4410601;32;34137;-70
2022/05/02 01:46:25;;;;;;;7.97;4.00;;;;;;;13.48;61.87;99843.03;4416092;32;34688;-69
2022/05/02 01:49:12;;;;;;;7.40;4.53;;;;;;;13.45;62.74;99855.47;4417517;32;34625;-69
2022/05/02 01:52:01;;;;;;;9.10;4.57;;;;;;;13.13;63.98;99870.50;4417260;32;34134;-69
2022/05/02 01:54:48;;;;;;;8.38;4.57;;;;;;;12.63;65.85;99870.09;4417887;32;34453;-70
2022/05/02 01:57:38;;;;;;;9.85;5.25;;;;;;;12.32;67.36;99862.69;4416181;32;35814;-70
2022/05/02 02:00:25;;;;;;;7.93;4.00;;;;;;;12.53;66.80;99861.00;4417145;32;33134;-70
2022/05/02 02:03:11;;;;;;;8.45;4.07;;;;;;;12.69;65.74;99866.84;4417844;32;34075;-70
2022/05/02 02:06:00;;;;;;;6.95;4.30;;;;;;;12.92;65.44;99864.84;4416699;32;34682;-69
2022/05/02 02:08:48;;;;;;;7.30;4.12;;;;;;;12.62;65.08;99855.53;4419306;32;35021;-70
2022/05/02 02:11:34;;;;;;;7.70;4.30;;;;;;;12.77;64.42;99860.56;4416513;32;34985;-70
2022/05/02 02:14:21;;;;;;;7.62;4.37;;;;;;;12.05;66.42;99859.03;4418088;32;35314;-70
2022/05/02 02:17:07;;;;;;;6.75;4.07;;;;;;;11.71;69.48;99854.13;4416867;32;34681;-69
2022/05/02 02:19:54;;;;;;;7.15;4.12;;;;;;;12.67;66.67;99862.84;4417316;32;35924;-70
2022/05/02 02:22:40;;;;;;;8.38;4.60;;;;;;;12.82;66.16;99865.94;4423408;32;35192;-69
2022/05/02 02:25:27;;;;;;;9.32;4.55;;;;;;;12.80;66.54;99865.44;4433208;32;34177;-69
2022/05/02 02:28:14;;;;;;;7.45;4.32;;;;;;;13.03;65.99;99860.66;4433270;32;35588;-69
2022/05/02 02:31:00;;;;;;;7.37;4.70;;;;;;;13.42;64.61;99858.88;4433558;32;34958;-69
2022/05/02 02:33:47;;;;;;;9.35;4.80;;;;;;;12.77;66.11;99857.03;4431401;32;35585;-69
2022/05/02 02:36:33;;;;;;;11.35;4.80;;;;;;;11.98;69.65;99850.44;4433188;32;33400;-69
2022/05/02 02:39:20;;;;;;;9.02;4.60;;;;;;;12.69;67.31;99852.31;4431768;32;35567;-69
2022/05/02 02:42:07;;;;;;;7.75;4.45;;;;;;;13.13;65.68;99855.94;4422066;32;35052;-70
2022/05/02 02:44:53;;;;;;;11.52;4.22;;;;;;;12.41;67.25;99855.31;4432856;32;34380;-70
2022/05/02 02:47:40;;;;;;;9.25;4.32;;;;;;;11.33;70.92;99853.69;4428637;32;35523;-70
2022/05/02 02:50:26;;;;;;;7.90;4.22;;;;;;;11.87;70.21;99857.31;4432330;32;34680;-69
2022/05/02 02:53:12;;;;;;;6.45;4.10;;;;;;;12.72;66.78;99865.41;4421991;32;35171;-70
2022/05/02 02:55:59;;;;;;;7.55;4.68;;;;;;;12.96;65.62;99865.78;4431651;32;35522;-69
2022/05/02 02:58:45;;;;;;;8.40;3.92;;;;;;;11.57;69.65;99848.69;4431521;32;33815;-69
2022/05/02 03:01:32;;;;;;;5.85;3.90;;;;;;;11.70;69.71;99855.25;4434323;32;34605;-69
2022/05/02 03:07:25;;;;;;;7.62;4.37;;;;;;;13.04;64.43;99856.75;4430638;32;34508;-69
2022/05/02 03:10:12;;;;;;;7.62;4.37;;;;;;;12.30;66.74;99854.78;4432677;32;34404;-69
2022/05/02 03:12:59;;;;;;;7.60;4.50;;;;;;;11.90;69.37;99859.44;4430078;32;35537;-69
2022/05/02 03:15:47;;;;;;;6.37;3.95;;;;;;;12.96;66.00;99849.28;4430905;32;36043;-70
2022/05/02 03:18:37;;;;;;;7.97;4.32;;;;;;;13.24;64.13;99844.31;4432756;32;34406;-69
2022/05/02 03:21:24;;;;;;;8.45;4.25;;;;;;;13.25;64.61;99845.94;4433332;32;35066;-69
2022/05/02 03:24:10;;;;;;;9.73;3.97;;;;;;;13.43;63.94;99852.28;4430989;32;34250;-69
2022/05/02 03:26:56;;;;;;;7.80;4.28;;;;;;;13.58;63.23;99842.69;4409347;32;34758;-70
2022/05/02 03:29:43;;;;;;;8.90;4.70;;;;;;;13.47;63.09;99850.47;4432925;32;35289;-69
2022/05/02 03:32:30;;;;;;;7.35;3.83;;;;;;;13.46;63.62;99846.13;4432051;32;35048;-70
2022/05/02 03:35:16;;;;;;;7.72;4.05;;;;;;;13.68;63.58;99841.53;4430656;32;34593;-69
2022/05/02 03:38:02;;;;;;;7.05;4.00;;;;;;;13.64;62.29;99844.12;4432150;32;34669;-68
2022/05/02 03:40:50;;;;;;;6.20;4.00;;;;;;;13.68;62.23;99831.31;4432825;32;34664;-69
2022/05/02 03:43:37;;;;;;;6.37;3.92;;;;;;;13.63;62.30;99833.44;4431629;32;34175;-68
2022/05/02 03:46:24;;;;;;;7.28;4.18;;;;;;;13.68;62.70;99825.81;4432157;32;34256;-68
2022/05/02 03:49:11;;;;;;;6.65;4.53;;;;;;;13.34;62.87;99829.44;4433829;32;36029;-68
2022/05/02 03:51:59;;;;;;;8.00;4.12;;;;;;;13.47;63.37;99825.69;4426820;32;34415;-68
2022/05/02 03:54:46;;;;;;;6.55;4.10;;;;;;;13.92;61.72;99830.78;4429366;32;35042;-68
2022/05/02 03:57:33;;;;;;;5.90;3.85;;;;;;;13.98;60.98;99830.63;4429036;32;35479;-68
2022/05/02 04:00:20;;;;;;;7.25;4.62;;;;;;;13.66;62.43;99827.28;4432469;32;35975;-68
2022/05/02 04:03:11;;;;;;;7.78;3.72;;;;;;;13.95;62.12;99829.34;4419457;32;34655;-68
2022/05/02 04:06:00;;;;;;;8.13;4.60;;;;;;;14.23;60.87;99834.41;4430595;32;34924;-68
2022/05/02 04:08:49;;;;;;;7.47;4.32;;;;;;;14.01;60.37;99827.22;4430272;32;34607;-68
2022/05/02 04:11:37;;;;;;;5.43;3.50;;;;;;;13.83;61.16;99827.25;4430121;32;36013;-68
2022/05/02 04:14:25;;;;;;;8.10;3.97;;;;;;;13.95;59.80;99830.12;4429137;32;34645;-68
2022/05/02 04:17:12;;;;;;;6.35;3.97;;;;;;;14.33;59.72;99828.53;4430315;32;35132;-68
2022/05/02 04:20:05;;;;;;;5.93;3.72;;;;;;;14.43;59.29;99821.81;4431942;32;35290;-68
2022/05/02 04:22:52;;;;;;;7.78;3.75;;;;;;;14.39;59.98;99830.75;4415675;32;33745;-68
2022/05/02 04:25:40;;;;;;;7.07;4.40;;;;;;;14.65;57.53;99826.28;4417567;32;34325;-68
2022/05/02 04:28:28;;;;;;;7.53;4.50;;;;;;;14.64;58.67;99828.25;4417052;32;34838;-68
2022/05/02 04:31:15;;;;;;;8.88;3.90;;;;;;;14.47;59.67;99840.13;4415206;32;34547;-68
2022/05/02 04:34:04;;;;;;;7.75;3.78;;;;;;;14.53;59.01;99832.53;4417550;32;34710;-68
2022/05/02 04:36:52;;;;;;;8.50;4.47;;;;;;;14.73;59.01;99842.78;4416686;32;34732;-68
2022/05/02 04:39:40;;;;;;;12.95;5.00;;;;;;;14.75;59.27;99840.50;4417174;32;33760;-68
2022/05/02 04:42:27;;;;;;;6.60;3.85;;;;;;;15.01;59.57;99839.53;4417442;32;34591;-68
2022/05/02 04:45:14;;;;;;;6.85;3.70;;;;;;;14.85;59.97;99840.09;4414047;32;34801;-69
2022/05/02 04:48:00;;;;;;;6.40;3.90;;;;;;;15.26;58.56;99834.94;4417710;32;34469;-68
2022/05/02 04:50:55;;;;;;;9.63;4.03;;;;;;;15.33;57.05;99842.69;4416582;32;34066;-68
2022/05/02 04:53:43;;;;;;;7.37;3.58;;;;;;;15.29;56.91;99854.41;4417365;32;35613;-69
2022/05/02 04:56:33;;;;;;;6.78;3.80;;;;;;;15.34;56.66;99847.03;4416343;32;34906;-68
2022/05/02 04:59:20;;;;;;;9.60;4.12;;;;;;;15.22;56.55;99847.78;4417168;32;34723;-68
2022/05/02 05:02:13;;;;;;;7.47;4.35;;;;;;;15.26;56.04;99851.50;4417524;32;34008;-68
2022/05/02 05:05:00;;;;;;;6.57;4.03;;;;;;;15.24;54.71;99854.59;4416117;32;34621;-68
2022/05/02 05:07:48;;;;;;;7.12;3.97;;;;;;;15.25;55.69;99864.50;4415130;32;34158;-69
2022/05/02 05:11:02;;;;;;;9.38;4.43;;;;;;;15.08;54.91;99867.38;4416136;32;35228;-70
2022/05/02 05:17:13;;;;;;;9.48;4.30;;;;;;;15.01;54.13;99870.69;4416186;32;34180;-69
2022/05/02 05:20:37;;;;;;;6.35;4.07;;;;;;;15.01;53.54;99867.12;4416159;32;34948;-68
2022/05/02 05:24:11;;;;;;;8.82;4.60;;;;;;;15.41;52.07;99855.59;4426558;32;34592;-68
2022/05/02 05:27:10;;;;;;;7.75;4.20;;;;;;;15.26;53.04;99871.63;4369234;32;35059;-69
2022/05/02 05:30:04;;;;;;;;;;;;;;;15.27;53.05;99873.25;4432634;32;35438;-69
2022/05/02 05:33:03;;;;;;;10.43;4.60;;;;;;;15.27;52.80;99873.25;4425662;32;36088;-69
2022/05/02 05:36:00;;;;;;;8.10;4.60;;;;;;;15.24;52.09;99868.41;4431485;32;34208;-68
2022/05/02 05:42:17;;;;;;;9.80;4.75;;;;;;;15.39;51.36;99869.72;4430204;32;35507;-69
2022/05/02 05:45:20;;;;;;;7.87;4.28;;;;;;;15.56;51.15;99866.03;4431901;32;34862;-68
2022/05/02 05:48:20;;;;;;;8.23;4.50;;;;;;;15.66;51.67;99859.28;4430800;32;34650;-69
2022/05/02 05:51:50;;;;;;;8.02;4.32;;;;;;;15.64;50.94;99853.28;4420860;32;33669;-69
2022/05/02 05:55:05;;;;;;;9.25;4.37;;;;;;;15.97;49.60;99858.84;4422146;32;34179;-69
2022/05/02 05:58:03;;;;;;;7.55;4.75;;;;;;;16.00;50.26;99857.34;4421921;32;34818;-69
2022/05/02 06:00:52;;;;;;;8.70;4.30;;;;;;;15.94;50.98;99862.28;4420711;32;34743;-69
2022/05/02 06:04:01;;;;;;;9.10;4.90;;;;;;;15.54;51.91;99860.03;4433086;32;34448;-69
2022/05/02 06:06:51;;;;;;;10.00;4.90;;;;;;;15.24;53.64;99867.59;4422972;32;34510;-69
2022/05/02 06:09:39;;;;;;;11.43;5.37;;;;;;;15.58;52.19;99860.97;4434208;32;35732;-69
2022/05/02 06:12:29;;;;;;;8.77;5.05;;;;;;;15.89;51.61;99862.50;4422333;32;34659;-69
2022/05/02 06:18:31;;;;;;;8.90;4.90;;;;;;;16.32;52.49;99866.72;4422656;32;34551;-69
2022/05/02 06:21:23;;;;;;;10.32;5.22;;;;;;;16.36;52.35;99862.94;4421063;32;34862;-69
2022/05/02 06:24:19;;;;;;;8.70;5.18;;;;;;;16.61;51.63;99862.94;4432165;32;34574;-69
2022/05/02 06:27:06;;;;;;;9.88;4.70;;;;;;;15.85;50.83;99867.06;4431645;32;34099;-69
2022/05/02 06:29:53;;;;;;;8.63;4.90;;;;;;;16.74;51.95;99866.53;4421466;32;34135;-69
2022/05/02 06:32:43;;;;;;;10.65;4.70;;;;;;;16.59;51.50;99871.59;4433002;32;34878;-69
2022/05/02 06:38:52;;;;;;;11.50;5.20;;;;;;;16.95;50.12;99860.88;4422367;32;33931;-69
2022/05/02 06:41:46;;;;;;;11.63;5.18;;;;;;;16.85;50.51;99871.25;4432212;32;34630;-69
2022/05/02 06:44:55;;;;;;;8.75;5.47;;;;;;;17.07;50.37;99869.94;4430137;32;35717;-69
2022/05/02 06:47:55;;;;;;;9.82;4.93;;;;;;;16.87;50.43;99877.22;4433678;32;35516;-70
2022/05/02 06:50:46;;;;;;;8.95;5.07;;;;;;;16.90;50.46;99881.28;4421926;32;35014;-69
2022/05/02 06:53:56;;;;;;;8.18;4.97;;;;;;;17.24;49.71;99881.91;4430765;32;34154;-69
2022/05/02 06:56:48;;;;;;;9.57;4.53;;;;;;;17.00;50.65;99889.13;4412589;32;36001;-69
2022/05/02 06:59:45;;;;;;;8.83;4.90;;;;;;;16.96;51.70;99885.44;4430194;32;37594;-69
2022/05/02 07:02:45;;;;;;;9.32;5.10;;;;;;;16.57;55.08;99898.78;4432655;32;36636;-69
2022/05/02 07:05:46;;;;;;;10.00;6.12;;;;;;;16.81;51.16;99891.66;4434218;32;33390;-69
2022/05/02 07:08:58;;;;;;;10.27;5.20;;;;;;;16.59;53.31;99890.97;4420609;32;34904;-70
2022/05/02 07:12:22;;;;;;;14.80;5.80;;;;;;;16.07;54.39;99886.03;4430994;32;35077;-70
2022/05/02 07:15:34;;;;;;;10.20;6.65;;;;;;;15.98;54.40;99893.59;4431215;32;35159;-69
2022/05/02 07:18:45;;;;;;;9.77;6.28;;;;;;;16.09;52.94;99891.22;4429892;32;34441;-69
2022/05/02 07:21:52;;;;;;;12.00;6.28;;;;;;;16.33;52.52;99887.69;4430832;32;34528;-69
2022/05/02 07:24:50;;;;;;;9.27;6.45;;;;;;;16.24;53.60;99889.75;4401582;32;34649;-69
2022/05/02 07:28:27;;;;;;;11.43;7.15;;;;;;;16.06;53.46;99891.91;4399476;32;33674;-69
2022/05/02 07:31:24;;;;;;;12.80;6.90;;;;;;;16.45;53.41;99892.41;4391401;32;34513;-69
2022/05/02 07:34:15;;;;;;;13.23;7.40;;;;;;;16.74;51.98;99894.19;4399758;32;33009;-69
2022/05/02 07:37:19;;;;;;;14.55;8.45;;;;;;;16.67;52.72;99893.94;4401643;32;34712;-69
2022/05/02 07:40:14;;;;;;;12.95;7.68;;;;;;;16.89;51.34;99889.94;4401148;32;33198;-69
2022/05/02 07:43:02;;;;;;;10.27;6.57;;;;;;;16.80;52.05;99887.28;4401333;32;34687;-69
2022/05/02 07:45:50;;;;;;;11.90;5.82;;;;;;;16.93;51.40;99890.84;4400615;32;34981;-69
2022/05/02 07:48:40;;;;;;;9.52;5.90;;;;;;;17.13;50.80;99883.56;4398518;32;34478;-69
2022/05/02 07:51:28;;;;;;;8.20;4.90;;;;;;;17.59;47.47;99878.56;4397356;32;34157;-70
2022/05/02 07:54:20;;;;;;;;;;;;;;;17.70;47.56;99883.28;4402535;32;34604;-70
2022/05/02 07:57:14;;;;;;;6.68;3.90;;;;;;;18.18;47.17;99872.28;4388843;32;35243;-71
2022/05/02 08:00:04;;;;;;;8.00;3.97;;;;;;;18.11;47.85;99874.91;4398826;32;35675;-70
2022/05/02 08:03:03;;;;;;;8.27;3.85;;;;;;;18.29;47.12;99878.94;4402339;32;34160;-70
2022/05/02 08:05:55;;;;;;;6.18;3.70;;;;;;;18.58;45.80;99874.88;4401103;32;34626;-70
2022/05/02 08:09:12;;;;;;;8.75;3.95;;;;;;;18.61;46.62;99884.47;4401104;32;37774;-70
2022/05/02 08:12:18;;;;;;;7.45;3.03;;;;;;;18.58;46.39;99876.88;4393364;32;34667;-70
2022/05/02 08:15:37;;;;;;;5.72;3.50;;;;;;;18.79;45.36;99882.19;4399833;32;34137;-70
2022/05/02 08:18:43;;;;;;;7.62;3.92;;;;;;;18.71;46.86;99895.03;4401617;32;34788;-70
2022/05/02 08:21:38;;;;;;;5.93;3.47;;;;;;;18.86;45.68;99880.34;4401057;32;34999;-70
2022/05/02 08:28:02;;;;;;;6.35;3.47;;;;;;;18.99;45.40;99877.50;4401207;32;33976;-70
2022/05/02 08:31:08;;;;;;;7.20;3.72;;;;;;;19.15;44.13;99869.91;4399857;32;33650;-70
2022/05/02 08:34:18;;;;;;;5.68;3.28;;;;;;;19.05;45.85;99865.72;4411379;32;34838;-70
2022/05/02 08:37:05;;;;;;;6.85;3.60;;;;;;;19.62;43.53;99866.13;4400964;32;35110;-70
2022/05/02 08:39:58;;;;;;;6.47;3.47;;;;;;;19.97;42.75;99862.47;4402261;32;35123;-70
2022/05/02 08:42:52;;;;;;;5.25;3.37;;;;;;;19.62;43.89;99865.34;4400958;32;34255;-70
2022/05/02 08:46:26;;;;;;;7.20;3.12;;;;;;;18.70;45.35;99864.84;4401638;32;35941;-70
2022/05/02 08:49:39;;;;;;;4.95;3.12;;;;;;;19.61;45.56;99864.53;4401972;32;34395;-70
2022/05/02 08:53:03;;;;;;;7.78;3.10;;;;;;;20.04;43.88;99865.38;4400895;32;34051;-71
2022/05/02 08:56:09;;;;;;;7.90;3.80;;;;;;;20.16;44.42;99850.50;4401308;32;34906;-70
2022/05/02 08:59:17;;;;;;;7.82;3.90;;;;;;;20.14;43.23;99858.41;4399260;32;36533;-71
2022/05/02 09:02:44;;;;;;;8.35;4.07;;;;;;;20.25;43.23;99850.25;4400450;32;35675;-70
2022/05/02 09:05:59;;;;;;;6.70;3.12;;;;;;;19.88;44.59;99850.78;4401929;32;34429;-72
2022/05/02 09:09:24;;;;;;;9.23;3.40;;;;;;;19.63;45.75;99856.63;4401241;32;35661;-70
2022/05/02 09:12:46;;;;;;;7.97;3.05;;;;;;;19.24;45.51;99853.84;4401284;32;35137;-70
2022/05/02 09:16:05;;;;;;;6.18;3.08;;;;;;;19.23;45.86;99848.66;4411065;32;34527;-70
2022/05/02 09:19:13;;;;;;;7.68;3.33;;;;;;;19.55;45.22;99849.31;4400666;32;33916;-70
2022/05/02 09:22:25;;;;;;;7.47;2.80;;;;;;;19.45;45.71;99855.47;4404132;32;34265;-70
2022/05/02 09:25:40;;;;;;;6.43;3.22;;;;;;;19.97;43.18;99843.00;4420180;32;34580;-70
2022/05/02 09:28:54;;;;;;;5.65;2.70;;;;;;;18.83;47.12;99847.78;4431435;32;33421;-71
2022/05/02 09:31:58;;;;;;;5.62;2.65;;;;;;;19.51;44.39;99842.88;4419607;32;33623;-70
2022/05/02 09:35:00;;;;;;;6.70;2.85;;;;;;;19.32;44.68;99847.28;4411712;32;35516;-71
2022/05/02 09:37:59;;;;;;;4.83;2.80;;;;;;;19.60;46.04;99856.56;4419166;32;35153;-70
2022/05/02 09:40:46;;;;;;;7.55;2.62;;;;;;;19.92;43.59;99840.50;4431487;32;34572;-71
2022/05/02 09:51:11;;;;;;;5.15;1.77;;;;;;;20.04;42.01;99839.56;4433707;32;35198;-70
2022/05/02 09:56:37;;;;;;;4.82;2.10;;;;;;;20.06;43.05;99838.00;4421811;32;35490;-72
2022/05/02 09:57:36;;;;;;;4.57;1.98;;;;;;;19.24;44.43;99844.69;4433996;32;34095;-71
2022/05/02 10:04:00;;;;;;;5.20;2.50;;;;;;;19.90;44.10;99831.75;4423373;32;35035;-71
2022/05/02 10:06:50;;;;;;;6.45;2.22;;;;;;;19.21;43.24;99829.59;4433947;32;35475;-70
2022/05/02 10:09:59;;;;;;;4.57;2.10;;;;;;;18.48;46.59;99830.25;4433854;32;34098;-70
2022/05/02 10:12:53;;;;;;;6.10;2.35;;;;;;;19.76;45.77;99821.16;4433287;32;35477;-71
2022/05/02 10:16:11;;;;;;;7.68;2.53;;;;;;;19.93;42.56;99815.12;4432374;32;34594;-71
2022/05/02 10:19:07;;;;;;;6.50;2.15;;;;;;;20.62;42.16;99817.87;4408034;32;34341;-71
2022/05/02 10:22:17;;;;;;;6.30;2.42;;;;;;;19.68;41.14;99809.09;4432027;32;33797;-71
2022/05/02 10:25:29;;;;;;;6.80;2.10;;;;;;;20.25;42.68;99806.53;4433190;32;34034;-71
2022/05/02 10:28:25;;;;;;;3.70;1.90;;;;;;;19.57;42.53;99796.94;4433192;32;34196;-70
2022/05/02 10:31:21;;;;;;;3.37;2.25;;;;;;;18.75;44.43;99795.22;4433092;32;35452;-70
2022/05/02 10:34:12;;;;;;;3.87;1.90;;;;;;;19.87;42.77;99793.56;4433607;32;35031;-70
2022/05/02 10:37:01;;;;;;;4.87;1.85;;;;;;;20.56;40.33;99794.34;4420840;32;34587;-71
2022/05/02 10:42:56;;;;;;;6.25;2.17;;;;;;;20.97;39.69;99783.38;4421265;32;34546;-71
2022/05/02 10:45:45;;;;;;;3.33;1.90;;;;;;;21.28;38.38;99782.16;4421724;32;32823;-71
2022/05/02 10:48:46;;;;;;;6.68;2.22;;;;;;;21.75;37.68;99786.31;4421782;32;35556;-70
2022/05/02 10:51:35;;;;;;;3.45;2.03;;;;;;;21.68;37.21;99791.00;4409861;32;34727;-70
2022/05/02 10:54:40;;;;;;;3.05;1.67;;;;;;;21.37;40.94;99789.47;4432806;32;35520;-71
2022/05/02 10:57:37;;;;;;;4.18;1.92;;;;;;;20.87;39.27;99787.63;4432962;32;33670;-70
2022/05/02 11:00:30;;;;;;;5.07;2.03;;;;;;;21.47;37.44;99789.59;4429508;32;34896;-71
2022/05/02 11:03:34;;;;;;;3.72;1.65;;;;;;;21.78;36.92;99784.75;4432893;32;34906;-71
2022/05/02 11:06:25;;;;;;;7.00;1.87;;;;;;;21.16;37.58;99787.19;4431362;32;34560;-71
2022/05/02 11:09:24;;;;;;;4.35;1.90;;;;;;;21.67;36.75;99781.06;4432550;32;34376;-71
2022/05/02 11:12:21;;;;;;;6.62;2.00;;;;;;;21.76;37.30;99768.38;4422107;32;34140;-72
2022/05/02 11:15:18;;;;;;;5.53;1.75;;;;;;;21.79;38.08;99775.19;4420778;32;34911;-71
2022/05/02 11:21:51;;;;;;;4.57;1.92;;;;;;;22.22;36.92;99781.19;4422956;32;34217;-71
2022/05/02 11:25:18;;;;;;;5.50;2.00;;;;;;;22.59;37.21;99771.87;4420643;32;33190;-71
2022/05/02 11:28:20;;;;;;;3.47;1.73;;;;;;;22.63;34.90;99769.94;4411809;32;37076;-72
2022/05/02 11:31:28;;;;;;;5.95;1.90;;;;;;;22.04;36.75;99783.00;4429578;32;35400;-72
2022/05/02 11:34:38;;;;;;;5.05;1.70;;;;;;;21.56;36.93;99781.72;4421585;32;34095;-71
2022/05/02 11:38:04;;;;;;;3.47;1.73;;;;;;;21.92;36.51;99768.16;4420886;32;34647;-71
2022/05/02 11:40:54;;;;;;;3.20;1.67;;;;;;;22.53;33.49;99767.84;4433432;32;35931;-72
2022/05/02 11:43:43;;;;;;;4.37;1.90;;;;;;;22.74;33.75;99769.97;4420620;32;34206;-71
2022/05/02 11:46:31;;;;;;;5.75;1.73;;;;;;;22.94;33.70;99762.91;4421387;32;34655;-71
2022/05/02 11:49:38;;;;;;;6.25;1.83;;;;;;;22.84;32.94;99761.66;4433411;32;35625;-71
2022/05/02 11:52:32;;;;;;;3.87;2.03;;;;;;;22.86;34.20;99759.28;4411303;32;34901;-71
2022/05/02 11:55:28;;;;;;;4.40;1.87;;;;;;;22.60;33.04;99753.94;4431516;32;34451;-71
2022/05/02 11:58:23;;;;;;;3.78;1.70;;;;;;;22.63;32.96;99747.59;4415991;32;34219;-71
2022/05/02 12:01:19;;;;;;;4.00;1.58;;;;;;;22.21;34.07;99751.69;4431448;32;35471;-71
2022/05/02 12:07:14;;;;;;;5.03;1.85;;;;;;;22.65;33.44;99746.00;4432456;32;34828;-72
2022/05/02 12:10:07;;;;;;;4.43;1.90;;;;;;;21.81;33.99;99742.16;4432911;32;34392;-71
2022/05/02 12:12:59;;;;;;;4.00;1.70;;;;;;;20.70;36.61;99740.84;4432533;32;34217;-71
2022/05/02 12:15:58;;;;;;;5.85;1.80;;;;;;;20.64;37.38;99740.38;4420517;32;36007;-71
2022/05/02 12:19:00;;;;;;;4.47;1.90;;;;;;;21.10;37.00;99731.81;4411802;32;292881;-71
2022/05/02 12:21:55;;;;;;;3.05;1.70;;;;;;;21.88;34.96;99725.47;4432777;32;34648;-71
2022/05/02 12:24:48;;;;;;;3.62;1.80;;;;;;;21.99;35.59;99720.78;4421916;32;34520;-71
2022/05/02 12:27:48;;;;;;;4.82;2.08;;;;;;;23.07;32.25;99719.47;4431287;32;34962;-72
2022/05/02 12:30:35;;;;;;;4.75;2.28;;;;;;;24.00;35.13;99710.47;4420409;32;34657;-72
2022/05/02 12:33:21;;;;;;;5.12;2.10;;;;;;;24.01;31.91;99712.88;4419985;32;34047;-72
2022/05/02 12:36:21;;;;;;;5.62;1.95;;;;;;;23.76;32.29;99701.69;4413337;32;34584;-72
2022/05/02 12:39:22;;;;;;;4.00;2.22;;;;;;;24.11;30.80;99699.28;4430946;32;35116;-71
2022/05/02 12:42:17;;;;;;;4.75;2.22;;;;;;;24.69;32.04;99701.56;4431730;32;35418;-72
2022/05/02 12:45:17;;;;;;;4.03;1.90;;;;;;;24.58;31.83;99698.00;4430767;32;33749;-72
2022/05/02 12:48:28;;;;;;;6.15;2.50;;;;;;;24.78;32.02;99691.94;4429224;32;35158;-73
2022/05/02 12:51:21;;;;;;;4.47;2.28;;;;;;;23.85;31.56;99689.28;4431687;32;35038;-73
2022/05/02 12:54:13;;;;;;;4.57;2.25;;;;;;;24.75;29.35;99682.34;4420374;32;34172;-73
2022/05/02 13:00:34;;;;;;;4.25;2.47;;;;;;;25.48;28.84;99669.59;4428106;32;34716;-74
2022/05/02 13:03:42;;;;;;;6.15;2.85;;;;;;;25.13;28.21;99674.97;4421903;32;35217;-74
2022/05/02 13:06:38;;;;;;;3.92;2.53;;;;;;;24.07;30.73;99670.50;4418456;32;34659;-73
2022/05/02 13:09:41;;;;;;;5.55;2.50;;;;;;;24.49;30.19;99664.03;4406727;32;32890;-73
2022/05/02 13:12:32;;;;;;;4.78;2.40;;;;;;;24.80;29.40;99656.72;4418119;32;34521;-74
2022/05/02 13:15:21;;;;;;;;;;;;;;;25.10;32.08;99653.38;4398819;32;35497;-73
2022/05/02 13:18:15;;;;;;;4.47;2.83;;;;;;;25.40;28.70;99654.00;4420049;32;35595;-73
2022/05/02 13:21:22;;;;;;;5.90;2.40;;;;;;;25.15;29.36;99654.16;4410553;32;33765;-73
2022/05/02 13:24:17;;;;;;;3.45;2.37;;;;;;;24.92;27.24;99652.66;4428639;32;34604;-73
2022/05/02 13:27:23;;;;;;;3.62;2.20;;;;;;;24.88;27.81;99647.06;4421811;32;34914;-74
2022/05/02 13:30:20;;;;;;;7.68;2.50;;;;;;;24.95;30.04;99646.22;4419036;32;34234;-73
2022/05/02 13:33:27;;;;;;;4.15;2.25;;;;;;;22.63;31.66;99639.47;4413122;32;33177;-74
2022/05/02 13:36:27;;;;;;;5.35;2.20;;;;;;;23.89;31.23;99643.31;4401569;32;34695;-73
2022/05/02 13:40:04;;;;;;;2.78;2.15;;;;;;;24.27;28.64;99637.25;4424685;32;34653;-73
2022/05/02 13:43:05;;;;;;;3.90;2.10;;;;;;;24.75;28.66;99636.72;4417713;32;35310;-73
2022/05/02 13:46:22;;;;;;;4.30;2.40;;;;;;;23.86;30.14;99627.34;4418150;32;35222;-74
2022/05/02 13:49:35;;;;;;;3.00;1.90;;;;;;;24.53;30.43;99622.78;4414032;32;34552;-74
2022/05/02 13:53:10;;;;;;;4.68;1.87;;;;;;;24.83;28.56;99622.28;4422477;32;35884;-75
2022/05/02 13:56:32;;;;;;;8.85;2.72;;;;;;;25.76;27.97;99615.25;4430557;32;34689;-75
2022/05/02 13:59:59;;;;;;;4.57;2.80;;;;;;;26.11;26.54;99602.88;4431366;32;33751;-75
2022/05/02 14:03:32;;;;;;;3.53;2.20;;;;;;;26.23;27.96;99605.16;4424421;32;34692;-75
2022/05/02 14:06:49;;;;;;;4.47;2.50;;;;;;;26.32;24.62;99607.47;4433447;32;35072;-75
2022/05/02 14:09:47;;;;;;;8.77;2.80;;;;;;;25.75;25.92;99603.22;4433477;32;34691;-74
2022/05/02 14:12:40;;;;;;;4.00;2.47;;;;;;;25.69;25.88;99602.06;4432647;32;34970;-74
2022/05/02 14:15:45;;;;;;;5.62;2.60;;;;;;;26.44;25.23;99604.13;4432730;32;34741;-74
2022/05/02 14:18:51;;;;;;;6.90;2.62;;;;;;;27.25;25.45;99600.66;4412697;32;34777;-75
2022/05/02 14:21:46;;;;;;;7.00;2.62;;;;;;;26.67;25.55;99591.44;4422749;32;35481;-75
2022/05/02 14:27:38;;;;;;;7.15;2.70;;;;;;;26.84;24.23;99592.41;4417917;32;34614;-75
2022/05/02 14:30:38;;;;;;;3.62;2.75;;;;;;;26.73;26.66;99586.94;4418730;32;35065;-75
2022/05/02 14:33:34;;;;;;;2.80;2.30;;;;;;;26.11;25.84;99596.47;4418139;32;34100;-75
2022/05/02 14:36:30;;;;;;;7.03;3.00;;;;;;;25.13;25.99;99585.25;4419030;32;34667;-74
2022/05/02 14:39:23;;;;;;;23.67;8.43;;;;;;;24.51;29.21;99588.81;4413864;32;35608;-75